sensor_id;sensor_type;location;lat;lon;timestamp;temperature;humidity
5134;DHT22;2585;48.696;10.066;2022-11-20T00:03:36;5.00;95.50
5134;DHT22;2585;48.696;10.066;2022-11-20T00:06:05;5.00;95.50
5134;DHT22;2585;48.696;10.066;2022-11-20T00:08:32;5.10;95.60
5134;DHT22;2585;48.696;10.066;2022-11-20T00:11:26;5.00;95.50
5134;DHT22;2585;48.696;10.066;2022-11-20T00:13:56;5.00;95.50
5134;DHT22;2585;48.696;10.066;2022-11-20T00:16:26;5.00;95.50
5134;DHT22;2585;48.696;10.066;2022-11-20T00:18:54;5.00;95.50
5134;DHT22;2585;48.696;10.066;2022-11-20T00:21:23;5.00;95.50
5134;DHT22;2585;48.696;10.066;2022-11-20T00:23:51;5.00;95.50
5134;DHT22;2585;48.696;10.066;2022-11-20T00:26:21;5.00;95.50
5134;DHT22;2585;48.696;10.066;2022-11-20T00:28:54;4.90;95.50
5134;DHT22;2585;48.696;10.066;2022-11-20T00:31:21;4.90;95.50
5134;DHT22;2585;48.696;10.066;2022-11-20T00:33:48;5.00;95.50
5134;DHT22;2585;48.696;10.066;2022-11-20T00:36:23;4.90;95.50
5134;DHT22;2585;48.696;10.066;2022-11-20T00:38:55;4.80;95.40
5134;DHT22;2585;48.696;10.066;2022-11-20T00:41:23;4.80;95.40
5134;DHT22;2585;48.696;10.066;2022-11-20T00:43:52;4.70;95.40
5134;DHT22;2585;48.696;10.066;2022-11-20T00:46:21;4.70;95.40
5134;DHT22;2585;48.696;10.066;2022-11-20T00:48:48;4.60;95.40
5134;DHT22;2585;48.696;10.066;2022-11-20T00:51:18;4.60;95.40
5134;DHT22;2585;48.696;10.066;2022-11-20T00:53:45;4.70;95.40
5134;DHT22;2585;48.696;10.066;2022-11-20T00:56:15;4.70;95.40
5134;DHT22;2585;48.696;10.066;2022-11-20T00:58:43;4.60;95.40
5134;DHT22;2585;48.696;10.066;2022-11-20T01:03:45;4.60;95.40
5134;DHT22;2585;48.696;10.066;2022-11-20T01:06:24;4.60;95.40
5134;DHT22;2585;48.696;10.066;2022-11-20T01:08:53;4.50;95.40
5134;DHT22;2585;48.696;10.066;2022-11-20T01:11:23;4.40;95.30
5134;DHT22;2585;48.696;10.066;2022-11-20T01:13:51;4.30;95.30
5134;DHT22;2585;48.696;10.066;2022-11-20T01:16:27;4.30;95.30
5134;DHT22;2585;48.696;10.066;2022-11-20T01:18:58;4.40;95.30
5134;DHT22;2585;48.696;10.066;2022-11-20T01:21:34;4.50;95.40
5134;DHT22;2585;48.696;10.066;2022-11-20T01:24:03;4.40;95.40
5134;DHT22;2585;48.696;10.066;2022-11-20T01:26:32;4.50;95.40
5134;DHT22;2585;48.696;10.066;2022-11-20T01:29:00;4.40;95.30
5134;DHT22;2585;48.696;10.066;2022-11-20T01:31:30;4.30;95.30
5134;DHT22;2585;48.696;10.066;2022-11-20T01:33:59;4.30;95.30
5134;DHT22;2585;48.696;10.066;2022-11-20T01:36:28;4.30;95.30
5134;DHT22;2585;48.696;10.066;2022-11-20T01:38:58;4.30;95.30
5134;DHT22;2585;48.696;10.066;2022-11-20T01:41:26;4.30;95.30
5134;DHT22;2585;48.696;10.066;2022-11-20T01:44:17;4.30;95.30
5134;DHT22;2585;48.696;10.066;2022-11-20T01:46:57;4.40;95.30
5134;DHT22;2585;48.696;10.066;2022-11-20T01:52:07;4.30;95.30
5134;DHT22;2585;48.696;10.066;2022-11-20T01:54:51;4.30;95.30
5134;DHT22;2585;48.696;10.066;2022-11-20T01:57:21;4.30;95.30
5134;DHT22;2585;48.696;10.066;2022-11-20T01:59:54;4.30;95.30
5134;DHT22;2585;48.696;10.066;2022-11-20T02:02:22;4.30;95.30
5134;DHT22;2585;48.696;10.066;2022-11-20T02:04:51;4.20;95.30
5134;DHT22;2585;48.696;10.066;2022-11-20T02:07:18;4.20;95.30
5134;DHT22;2585;48.696;10.066;2022-11-20T02:09:46;4.20;95.30
5134;DHT22;2585;48.696;10.066;2022-11-20T02:12:13;4.30;95.30
5134;DHT22;2585;48.696;10.066;2022-11-20T02:15:01;4.20;95.30
5134;DHT22;2585;48.696;10.066;2022-11-20T02:17:28;4.20;95.30
5134;DHT22;2585;48.696;10.066;2022-11-20T02:19:55;4.20;95.30
5134;DHT22;2585;48.696;10.066;2022-11-20T02:22:29;4.10;95.20
5134;DHT22;2585;48.696;10.066;2022-11-20T02:25:00;4.10;95.20
5134;DHT22;2585;48.696;10.066;2022-11-20T02:27:29;4.10;95.20
5134;DHT22;2585;48.696;10.066;2022-11-20T02:30:04;4.20;95.30
5134;DHT22;2585;48.696;10.066;2022-11-20T02:32:35;4.20;95.20
5134;DHT22;2585;48.696;10.066;2022-11-20T02:35:55;4.20;95.20
5134;DHT22;2585;48.696;10.066;2022-11-20T02:37:59;4.10;95.20
5134;DHT22;2585;48.696;10.066;2022-11-20T02:40:27;4.10;95.20
5134;DHT22;2585;48.696;10.066;2022-11-20T02:42:55;4.10;95.20
5134;DHT22;2585;48.696;10.066;2022-11-20T02:45:23;4.10;95.20
5134;DHT22;2585;48.696;10.066;2022-11-20T02:47:50;4.10;95.20
5134;DHT22;2585;48.696;10.066;2022-11-20T02:50:17;4.10;95.20
5134;DHT22;2585;48.696;10.066;2022-11-20T02:52:44;4.10;95.20
5134;DHT22;2585;48.696;10.066;2022-11-20T02:55:11;4.00;95.10
5134;DHT22;2585;48.696;10.066;2022-11-20T02:57:38;4.00;95.10
5134;DHT22;2585;48.696;10.066;2022-11-20T03:00:05;4.00;95.10
5134;DHT22;2585;48.696;10.066;2022-11-20T03:02:33;3.90;95.10
5134;DHT22;2585;48.696;10.066;2022-11-20T03:05:00;3.90;95.10
5134;DHT22;2585;48.696;10.066;2022-11-20T03:07:27;3.90;95.10
5134;DHT22;2585;48.696;10.066;2022-11-20T03:09:54;3.90;95.10
5134;DHT22;2585;48.696;10.066;2022-11-20T03:12:20;3.90;95.10
5134;DHT22;2585;48.696;10.066;2022-11-20T03:14:47;3.90;95.10
5134;DHT22;2585;48.696;10.066;2022-11-20T03:17:18;4.00;95.20
5134;DHT22;2585;48.696;10.066;2022-11-20T03:19:45;4.00;95.20
5134;DHT22;2585;48.696;10.066;2022-11-20T03:22:12;4.00;95.20
5134;DHT22;2585;48.696;10.066;2022-11-20T03:24:39;4.10;95.20
5134;DHT22;2585;48.696;10.066;2022-11-20T03:27:05;4.00;95.20
5134;DHT22;2585;48.696;10.066;2022-11-20T03:29:32;4.00;95.20
5134;DHT22;2585;48.696;10.066;2022-11-20T03:31:59;4.00;95.20
5134;DHT22;2585;48.696;10.066;2022-11-20T03:34:26;4.00;95.20
5134;DHT22;2585;48.696;10.066;2022-11-20T03:36:53;4.00;95.20
5134;DHT22;2585;48.696;10.066;2022-11-20T03:39:20;3.90;95.20
5134;DHT22;2585;48.696;10.066;2022-11-20T03:41:47;3.90;95.20
5134;DHT22;2585;48.696;10.066;2022-11-20T03:44:14;3.80;95.10
5134;DHT22;2585;48.696;10.066;2022-11-20T03:46:40;3.90;95.20
5134;DHT22;2585;48.696;10.066;2022-11-20T03:49:07;4.00;95.20
5134;DHT22;2585;48.696;10.066;2022-11-20T03:51:35;4.00;95.20
5134;DHT22;2585;48.696;10.066;2022-11-20T03:54:04;4.10;95.20
5134;DHT22;2585;48.696;10.066;2022-11-20T03:56:35;4.10;95.30
5134;DHT22;2585;48.696;10.066;2022-11-20T03:59:02;4.00;95.20
5134;DHT22;2585;48.696;10.066;2022-11-20T04:01:32;4.00;95.20
5134;DHT22;2585;48.696;10.066;2022-11-20T04:03:59;3.90;95.20
5134;DHT22;2585;48.696;10.066;2022-11-20T04:06:35;4.00;95.20
5134;DHT22;2585;48.696;10.066;2022-11-20T04:09:03;3.90;95.20
5134;DHT22;2585;48.696;10.066;2022-11-20T04:11:33;3.90;95.20
5134;DHT22;2585;48.696;10.066;2022-11-20T04:14:04;4.00;95.20
5134;DHT22;2585;48.696;10.066;2022-11-20T04:16:35;4.10;95.30
5134;DHT22;2585;48.696;10.066;2022-11-20T04:19:05;4.10;95.30
5134;DHT22;2585;48.696;10.066;2022-11-20T04:21:32;4.00;95.20
5134;DHT22;2585;48.696;10.066;2022-11-20T04:23:59;3.90;95.20
5134;DHT22;2585;48.696;10.066;2022-11-20T04:26:28;4.00;95.20
5134;DHT22;2585;48.696;10.066;2022-11-20T04:28:55;3.80;95.20
5134;DHT22;2585;48.696;10.066;2022-11-20T04:31:28;3.90;95.20
5134;DHT22;2585;48.696;10.066;2022-11-20T04:33:55;3.80;95.20
5134;DHT22;2585;48.696;10.066;2022-11-20T04:36:24;3.80;95.20
5134;DHT22;2585;48.696;10.066;2022-11-20T04:39:12;3.70;95.20
5134;DHT22;2585;48.696;10.066;2022-11-20T04:41:39;3.80;95.20
5134;DHT22;2585;48.696;10.066;2022-11-20T04:44:06;3.60;95.10
5134;DHT22;2585;48.696;10.066;2022-11-20T04:46:39;3.60;95.10
5134;DHT22;2585;48.696;10.066;2022-11-20T04:49:06;3.60;95.10
5134;DHT22;2585;48.696;10.066;2022-11-20T04:51:34;3.50;95.10
5134;DHT22;2585;48.696;10.066;2022-11-20T04:54:01;3.40;95.10
5134;DHT22;2585;48.696;10.066;2022-11-20T04:56:28;3.50;95.10
5134;DHT22;2585;48.696;10.066;2022-11-20T04:58:55;3.40;95.10
5134;DHT22;2585;48.696;10.066;2022-11-20T05:01:23;3.40;95.10
5134;DHT22;2585;48.696;10.066;2022-11-20T05:03:51;3.50;95.10
5134;DHT22;2585;48.696;10.066;2022-11-20T05:06:19;3.50;95.10
5134;DHT22;2585;48.696;10.066;2022-11-20T05:08:46;3.40;95.10
5134;DHT22;2585;48.696;10.066;2022-11-20T05:11:16;3.30;95.00
5134;DHT22;2585;48.696;10.066;2022-11-20T05:13:43;3.30;95.00
5134;DHT22;2585;48.696;10.066;2022-11-20T05:16:12;3.40;95.10
5134;DHT22;2585;48.696;10.066;2022-11-20T05:18:40;3.40;95.10
5134;DHT22;2585;48.696;10.066;2022-11-20T05:21:08;3.50;95.10
5134;DHT22;2585;48.696;10.066;2022-11-20T05:23:36;3.50;95.10
5134;DHT22;2585;48.696;10.066;2022-11-20T05:26:04;3.50;95.10
5134;DHT22;2585;48.696;10.066;2022-11-20T05:28:31;3.60;95.20
5134;DHT22;2585;48.696;10.066;2022-11-20T05:31:06;3.40;95.10
5134;DHT22;2585;48.696;10.066;2022-11-20T05:33:34;3.20;95.00
5134;DHT22;2585;48.696;10.066;2022-11-20T05:36:03;3.30;95.10
5134;DHT22;2585;48.696;10.066;2022-11-20T05:38:30;3.30;95.10
5134;DHT22;2585;48.696;10.066;2022-11-20T05:41:04;3.30;95.10
5134;DHT22;2585;48.696;10.066;2022-11-20T05:43:35;3.40;95.10
5134;DHT22;2585;48.696;10.066;2022-11-20T05:46:03;3.40;95.10
5134;DHT22;2585;48.696;10.066;2022-11-20T05:48:32;3.40;95.10
5134;DHT22;2585;48.696;10.066;2022-11-20T05:51:00;3.40;95.10
5134;DHT22;2585;48.696;10.066;2022-11-20T05:53:27;3.40;95.10
5134;DHT22;2585;48.696;10.066;2022-11-20T05:58:25;3.40;95.10
5134;DHT22;2585;48.696;10.066;2022-11-20T06:00:52;3.50;95.20
5134;DHT22;2585;48.696;10.066;2022-11-20T06:03:18;3.50;95.20
5134;DHT22;2585;48.696;10.066;2022-11-20T06:05:45;3.50;95.20
5134;DHT22;2585;48.696;10.066;2022-11-20T06:08:12;3.60;95.20
5134;DHT22;2585;48.696;10.066;2022-11-20T06:10:39;3.50;95.20
5134;DHT22;2585;48.696;10.066;2022-11-20T06:13:06;3.50;95.20
5134;DHT22;2585;48.696;10.066;2022-11-20T06:15:32;3.50;95.20
5134;DHT22;2585;48.696;10.066;2022-11-20T06:17:59;3.60;95.20
5134;DHT22;2585;48.696;10.066;2022-11-20T06:20:26;3.60;95.20
5134;DHT22;2585;48.696;10.066;2022-11-20T06:22:52;3.60;95.20
5134;DHT22;2585;48.696;10.066;2022-11-20T06:25:19;3.60;95.20
5134;DHT22;2585;48.696;10.066;2022-11-20T06:27:46;3.70;95.20
5134;DHT22;2585;48.696;10.066;2022-11-20T06:30:13;3.60;95.20
5134;DHT22;2585;48.696;10.066;2022-11-20T06:32:40;3.60;95.20
5134;DHT22;2585;48.696;10.066;2022-11-20T06:35:07;3.60;95.20
5134;DHT22;2585;48.696;10.066;2022-11-20T06:37:34;3.70;95.30
5134;DHT22;2585;48.696;10.066;2022-11-20T06:40:00;3.70;95.30
5134;DHT22;2585;48.696;10.066;2022-11-20T06:42:27;3.70;95.30
5134;DHT22;2585;48.696;10.066;2022-11-20T06:44:54;3.70;95.30
5134;DHT22;2585;48.696;10.066;2022-11-20T06:47:20;3.60;95.20
5134;DHT22;2585;48.696;10.066;2022-11-20T06:49:47;3.70;95.30
5134;DHT22;2585;48.696;10.066;2022-11-20T06:52:14;3.60;95.20
5134;DHT22;2585;48.696;10.066;2022-11-20T06:54:41;3.60;95.20
5134;DHT22;2585;48.696;10.066;2022-11-20T06:57:07;3.70;95.30
5134;DHT22;2585;48.696;10.066;2022-11-20T06:59:34;3.70;95.30
5134;DHT22;2585;48.696;10.066;2022-11-20T07:02:01;3.70;95.30
5134;DHT22;2585;48.696;10.066;2022-11-20T07:04:28;3.60;95.30
5134;DHT22;2585;48.696;10.066;2022-11-20T07:06:55;3.60;95.30
5134;DHT22;2585;48.696;10.066;2022-11-20T07:09:22;3.70;95.30
5134;DHT22;2585;48.696;10.066;2022-11-20T07:11:49;3.80;95.30
5134;DHT22;2585;48.696;10.066;2022-11-20T07:14:16;3.80;95.30
5134;DHT22;2585;48.696;10.066;2022-11-20T07:16:43;3.80;95.30
5134;DHT22;2585;48.696;10.066;2022-11-20T07:19:09;3.90;95.30
5134;DHT22;2585;48.696;10.066;2022-11-20T07:21:36;3.90;95.30
5134;DHT22;2585;48.696;10.066;2022-11-20T07:24:03;4.10;95.40
5134;DHT22;2585;48.696;10.066;2022-11-20T07:26:30;4.20;95.40
5134;DHT22;2585;48.696;10.066;2022-11-20T07:28:57;4.20;95.30
5134;DHT22;2585;48.696;10.066;2022-11-20T07:31:24;4.30;95.30
5134;DHT22;2585;48.696;10.066;2022-11-20T07:33:50;4.30;95.30
5134;DHT22;2585;48.696;10.066;2022-11-20T07:36:17;4.30;95.30
5134;DHT22;2585;48.696;10.066;2022-11-20T07:38:44;4.30;95.30
5134;DHT22;2585;48.696;10.066;2022-11-20T07:41:10;4.30;95.30
5134;DHT22;2585;48.696;10.066;2022-11-20T07:43:37;4.30;95.30
5134;DHT22;2585;48.696;10.066;2022-11-20T07:46:07;4.30;95.30
5134;DHT22;2585;48.696;10.066;2022-11-20T07:48:34;4.30;95.30
5134;DHT22;2585;48.696;10.066;2022-11-20T07:51:00;4.40;95.20
5134;DHT22;2585;48.696;10.066;2022-11-20T07:53:27;4.40;95.20
5134;DHT22;2585;48.696;10.066;2022-11-20T07:55:54;4.40;95.10
5134;DHT22;2585;48.696;10.066;2022-11-20T07:58:21;4.40;95.10
5134;DHT22;2585;48.696;10.066;2022-11-20T08:00:48;4.40;95.10
5134;DHT22;2585;48.696;10.066;2022-11-20T08:03:15;4.40;95.00
5134;DHT22;2585;48.696;10.066;2022-11-20T08:05:50;4.40;95.00
5134;DHT22;2585;48.696;10.066;2022-11-20T08:08:16;4.40;95.00
5134;DHT22;2585;48.696;10.066;2022-11-20T08:10:43;4.40;94.90
5134;DHT22;2585;48.696;10.066;2022-11-20T08:13:10;4.40;94.80
5134;DHT22;2585;48.696;10.066;2022-11-20T08:15:55;4.40;94.50
5134;DHT22;2585;48.696;10.066;2022-11-20T08:18:22;4.30;94.40
5134;DHT22;2585;48.696;10.066;2022-11-20T08:21:00;4.20;94.20
5134;DHT22;2585;48.696;10.066;2022-11-20T08:23:27;4.20;94.10
5134;DHT22;2585;48.696;10.066;2022-11-20T08:25:54;4.20;93.80
5134;DHT22;2585;48.696;10.066;2022-11-20T08:28:21;4.20;94.20
5134;DHT22;2585;48.696;10.066;2022-11-20T08:30:49;4.20;94.30
5134;DHT22;2585;48.696;10.066;2022-11-20T08:33:17;4.20;94.30
5134;DHT22;2585;48.696;10.066;2022-11-20T08:35:44;4.20;94.30
5134;DHT22;2585;48.696;10.066;2022-11-20T08:38:11;4.20;94.40
5134;DHT22;2585;48.696;10.066;2022-11-20T08:40:38;4.20;94.20
5134;DHT22;2585;48.696;10.066;2022-11-20T08:43:04;4.20;93.90
5134;DHT22;2585;48.696;10.066;2022-11-20T08:45:31;4.20;93.60
5134;DHT22;2585;48.696;10.066;2022-11-20T08:48:02;4.20;93.50
5134;DHT22;2585;48.696;10.066;2022-11-20T08:50:30;4.30;93.40
5134;DHT22;2585;48.696;10.066;2022-11-20T08:53:04;4.40;93.40
5134;DHT22;2585;48.696;10.066;2022-11-20T08:55:31;4.50;93.40
5134;DHT22;2585;48.696;10.066;2022-11-20T08:57:58;4.60;93.60
5134;DHT22;2585;48.696;10.066;2022-11-20T09:00:24;4.70;92.80
5134;DHT22;2585;48.696;10.066;2022-11-20T09:02:51;4.70;92.70
5134;DHT22;2585;48.696;10.066;2022-11-20T09:05:19;4.70;92.10
5134;DHT22;2585;48.696;10.066;2022-11-20T09:07:45;4.70;91.20
5134;DHT22;2585;48.696;10.066;2022-11-20T09:10:12;4.70;91.20
5134;DHT22;2585;48.696;10.066;2022-11-20T09:12:50;4.70;90.80
5134;DHT22;2585;48.696;10.066;2022-11-20T09:15:19;4.70;92.00
5134;DHT22;2585;48.696;10.066;2022-11-20T09:17:56;4.70;92.60
5134;DHT22;2585;48.696;10.066;2022-11-20T09:20:23;4.60;93.30
5134;DHT22;2585;48.696;10.066;2022-11-20T09:22:50;4.60;93.90
5134;DHT22;2585;48.696;10.066;2022-11-20T09:25:18;4.60;94.00
5134;DHT22;2585;48.696;10.066;2022-11-20T09:27:45;4.60;94.20
5134;DHT22;2585;48.696;10.066;2022-11-20T09:30:14;4.60;94.30
5134;DHT22;2585;48.696;10.066;2022-11-20T09:32:42;4.50;94.30
5134;DHT22;2585;48.696;10.066;2022-11-20T09:35:09;4.60;94.50
5134;DHT22;2585;48.696;10.066;2022-11-20T09:37:37;4.50;94.50
5134;DHT22;2585;48.696;10.066;2022-11-20T09:40:04;4.60;94.60
5134;DHT22;2585;48.696;10.066;2022-11-20T09:45:30;4.60;94.70
5134;DHT22;2585;48.696;10.066;2022-11-20T09:56:11;4.60;94.60
5134;DHT22;2585;48.696;10.066;2022-11-20T09:58:47;4.60;94.70
5134;DHT22;2585;48.696;10.066;2022-11-20T10:01:17;4.60;94.70
5134;DHT22;2585;48.696;10.066;2022-11-20T10:04:06;4.70;94.80
5134;DHT22;2585;48.696;10.066;2022-11-20T10:09:52;4.80;94.80
5134;DHT22;2585;48.696;10.066;2022-11-20T10:12:57;4.80;94.70
5134;DHT22;2585;48.696;10.066;2022-11-20T10:15:31;4.80;94.60
5134;DHT22;2585;48.696;10.066;2022-11-20T10:21:36;5.00;94.50
5134;DHT22;2585;48.696;10.066;2022-11-20T10:29:41;5.00;93.10
5134;DHT22;2585;48.696;10.066;2022-11-20T10:32:16;5.00;93.90
5134;DHT22;2585;48.696;10.066;2022-11-20T10:37:34;5.00;94.70
5134;DHT22;2585;48.696;10.066;2022-11-20T10:43:07;4.90;95.00
5134;DHT22;2585;48.696;10.066;2022-11-20T10:46:03;4.90;95.10
5134;DHT22;2585;48.696;10.066;2022-11-20T10:48:32;4.90;95.10
5134;DHT22;2585;48.696;10.066;2022-11-20T10:56:30;5.00;95.30
5134;DHT22;2585;48.696;10.066;2022-11-20T10:59:26;5.00;95.30
5134;DHT22;2585;48.696;10.066;2022-11-20T11:01:54;5.00;95.40
5134;DHT22;2585;48.696;10.066;2022-11-20T11:06:52;5.10;95.40
5134;DHT22;2585;48.696;10.066;2022-11-20T11:09:34;5.20;95.40
5134;DHT22;2585;48.696;10.066;2022-11-20T11:12:09;5.20;95.40
5134;DHT22;2585;48.696;10.066;2022-11-20T11:14:48;5.30;95.40
5134;DHT22;2585;48.696;10.066;2022-11-20T11:17:31;5.30;95.30
5134;DHT22;2585;48.696;10.066;2022-11-20T11:20:06;5.30;95.30
5134;DHT22;2585;48.696;10.066;2022-11-20T11:22:42;5.30;95.30
5134;DHT22;2585;48.696;10.066;2022-11-20T11:27:55;5.30;95.20
5134;DHT22;2585;48.696;10.066;2022-11-20T11:30:25;5.30;95.10
5134;DHT22;2585;48.696;10.066;2022-11-20T11:33:34;5.30;95.20
5134;DHT22;2585;48.696;10.066;2022-11-20T11:36:03;5.30;95.30
5134;DHT22;2585;48.696;10.066;2022-11-20T11:38:38;5.30;95.30
5134;DHT22;2585;48.696;10.066;2022-11-20T11:41:06;5.30;95.30
5134;DHT22;2585;48.696;10.066;2022-11-20T11:43:36;5.30;95.30
5134;DHT22;2585;48.696;10.066;2022-11-20T11:46:33;5.30;95.30
5134;DHT22;2585;48.696;10.066;2022-11-20T11:51:57;5.10;95.30
5134;DHT22;2585;48.696;10.066;2022-11-20T11:54:24;5.10;95.30
5134;DHT22;2585;48.696;10.066;2022-11-20T11:56:51;5.10;95.30
5134;DHT22;2585;48.696;10.066;2022-11-20T12:05:00;5.00;95.40
5134;DHT22;2585;48.696;10.066;2022-11-20T12:07:39;4.90;95.30
5134;DHT22;2585;48.696;10.066;2022-11-20T12:10:21;4.90;95.40
5134;DHT22;2585;48.696;10.066;2022-11-20T12:12:55;4.90;95.40
5134;DHT22;2585;48.696;10.066;2022-11-20T12:15:33;4.80;95.40
5134;DHT22;2585;48.696;10.066;2022-11-20T12:18:00;4.80;95.40
5134;DHT22;2585;48.696;10.066;2022-11-20T12:20:36;4.80;95.40
5134;DHT22;2585;48.696;10.066;2022-11-20T12:34:18;4.80;95.40
5134;DHT22;2585;48.696;10.066;2022-11-20T12:37:23;4.70;95.40
5134;DHT22;2585;48.696;10.066;2022-11-20T12:39:58;4.70;95.40
5134;DHT22;2585;48.696;10.066;2022-11-20T12:43:27;4.70;95.40
5134;DHT22;2585;48.696;10.066;2022-11-20T13:08:18;6.70;90.70
5134;DHT22;2585;48.696;10.066;2022-11-20T13:10:56;7.30;90.50
5134;DHT22;2585;48.696;10.066;2022-11-20T13:16:10;6.90;85.80
5134;DHT22;2585;48.696;10.066;2022-11-20T13:18:41;6.80;84.50
5134;DHT22;2585;48.696;10.066;2022-11-20T13:21:39;6.70;79.10
5134;DHT22;2585;48.696;10.066;2022-11-20T13:24:23;7.00;84.90
5134;DHT22;2585;48.696;10.066;2022-11-20T13:27:26;7.40;77.90
5134;DHT22;2585;48.696;10.066;2022-11-20T13:30:02;6.50;64.70
5134;DHT22;2585;48.696;10.066;2022-11-20T13:32:29;6.20;76.90
5134;DHT22;2585;48.696;10.066;2022-11-20T13:35:00;6.00;90.50
5134;DHT22;2585;48.696;10.066;2022-11-20T13:37:34;6.00;92.00
5134;DHT22;2585;48.696;10.066;2022-11-20T13:42:45;5.80;93.20
5134;DHT22;2585;48.696;10.066;2022-11-20T13:45:27;5.70;93.40
5134;DHT22;2585;48.696;10.066;2022-11-20T13:47:55;5.70;93.90
5134;DHT22;2585;48.696;10.066;2022-11-20T13:50:39;5.70;94.20
5134;DHT22;2585;48.696;10.066;2022-11-20T14:01:17;5.60;95.00
5134;DHT22;2585;48.696;10.066;2022-11-20T14:03:47;5.50;94.70
5134;DHT22;2585;48.696;10.066;2022-11-20T14:06:34;5.70;94.80
5134;DHT22;2585;48.696;10.066;2022-11-20T14:09:09;5.80;94.90
5134;DHT22;2585;48.696;10.066;2022-11-20T14:11:46;5.80;94.80
5134;DHT22;2585;48.696;10.066;2022-11-20T14:14:16;5.70;94.70
5134;DHT22;2585;48.696;10.066;2022-11-20T14:16:43;5.70;94.40
5134;DHT22;2585;48.696;10.066;2022-11-20T14:21:53;5.70;94.40
5134;DHT22;2585;48.696;10.066;2022-11-20T14:24:22;5.70;94.20
5134;DHT22;2585;48.696;10.066;2022-11-20T14:26:50;5.70;93.90
5134;DHT22;2585;48.696;10.066;2022-11-20T14:29:19;5.70;93.00
5134;DHT22;2585;48.696;10.066;2022-11-20T14:31:51;5.50;91.40
5134;DHT22;2585;48.696;10.066;2022-11-20T14:34:28;5.40;76.20
5134;DHT22;2585;48.696;10.066;2022-11-20T14:37:03;5.30;84.70
5134;DHT22;2585;48.696;10.066;2022-11-20T14:39:36;5.20;75.40
5134;DHT22;2585;48.696;10.066;2022-11-20T14:42:17;5.20;76.70
5134;DHT22;2585;48.696;10.066;2022-11-20T14:44:45;5.20;83.60
5134;DHT22;2585;48.696;10.066;2022-11-20T14:47:17;5.10;81.70
5134;DHT22;2585;48.696;10.066;2022-11-20T14:49:45;5.20;87.50
5134;DHT22;2585;48.696;10.066;2022-11-20T14:52:24;5.10;89.60
5134;DHT22;2585;48.696;10.066;2022-11-20T14:54:53;5.10;90.90
5134;DHT22;2585;48.696;10.066;2022-11-20T14:57:35;5.10;92.10
5134;DHT22;2585;48.696;10.066;2022-11-20T15:02:42;5.10;92.80
5134;DHT22;2585;48.696;10.066;2022-11-20T15:05:09;5.10;90.10
5134;DHT22;2585;48.696;10.066;2022-11-20T15:07:42;5.20;91.20
5134;DHT22;2585;48.696;10.066;2022-11-20T15:12:50;5.10;91.10
5134;DHT22;2585;48.696;10.066;2022-11-20T15:15:46;5.10;91.70
5134;DHT22;2585;48.696;10.066;2022-11-20T15:18:29;5.10;92.40
5134;DHT22;2585;48.696;10.066;2022-11-20T15:21:00;5.00;92.80
5134;DHT22;2585;48.696;10.066;2022-11-20T15:23:28;5.00;93.60
5134;DHT22;2585;48.696;10.066;2022-11-20T15:25:56;4.90;93.60
5134;DHT22;2585;48.696;10.066;2022-11-20T15:28:44;4.80;93.40
5134;DHT22;2585;48.696;10.066;2022-11-20T15:31:13;4.80;93.80
5134;DHT22;2585;48.696;10.066;2022-11-20T15:33:40;4.70;93.00
5134;DHT22;2585;48.696;10.066;2022-11-20T15:36:07;4.70;92.80
5134;DHT22;2585;48.696;10.066;2022-11-20T15:38:34;4.70;93.40
5134;DHT22;2585;48.696;10.066;2022-11-20T15:41:01;4.60;92.70
5134;DHT22;2585;48.696;10.066;2022-11-20T15:43:28;4.60;90.50
5134;DHT22;2585;48.696;10.066;2022-11-20T15:45:59;4.60;88.80
5134;DHT22;2585;48.696;10.066;2022-11-20T15:48:28;4.50;85.10
5134;DHT22;2585;48.696;10.066;2022-11-20T15:53:31;4.40;90.70
5134;DHT22;2585;48.696;10.066;2022-11-20T15:55:58;4.50;90.60
5134;DHT22;2585;48.696;10.066;2022-11-20T15:58:25;4.50;92.20
5134;DHT22;2585;48.696;10.066;2022-11-20T16:00:53;4.40;92.90
5134;DHT22;2585;48.696;10.066;2022-11-20T16:03:20;4.40;93.00
5134;DHT22;2585;48.696;10.066;2022-11-20T16:05:47;4.40;93.70
5134;DHT22;2585;48.696;10.066;2022-11-20T16:08:14;4.40;94.10
5134;DHT22;2585;48.696;10.066;2022-11-20T16:10:41;4.30;94.30
5134;DHT22;2585;48.696;10.066;2022-11-20T16:13:16;4.30;94.50
5134;DHT22;2585;48.696;10.066;2022-11-20T16:16:18;4.40;94.60
5134;DHT22;2585;48.696;10.066;2022-11-20T16:18:46;4.30;94.60
5134;DHT22;2585;48.696;10.066;2022-11-20T16:21:13;4.30;94.60
5134;DHT22;2585;48.696;10.066;2022-11-20T16:23:40;4.30;94.60
5134;DHT22;2585;48.696;10.066;2022-11-20T16:26:10;4.30;94.60
5134;DHT22;2585;48.696;10.066;2022-11-20T16:28:37;4.20;94.60
5134;DHT22;2585;48.696;10.066;2022-11-20T16:31:15;4.20;94.60
5134;DHT22;2585;48.696;10.066;2022-11-20T16:33:42;4.10;94.60
5134;DHT22;2585;48.696;10.066;2022-11-20T16:36:11;4.10;94.70
5134;DHT22;2585;48.696;10.066;2022-11-20T16:38:39;4.10;94.80
5134;DHT22;2585;48.696;10.066;2022-11-20T16:41:06;4.10;94.80
5134;DHT22;2585;48.696;10.066;2022-11-20T16:43:48;4.00;94.80
5134;DHT22;2585;48.696;10.066;2022-11-20T16:46:17;3.90;94.80
5134;DHT22;2585;48.696;10.066;2022-11-20T16:48:44;3.80;94.80
5134;DHT22;2585;48.696;10.066;2022-11-20T16:51:12;3.80;94.80
5134;DHT22;2585;48.696;10.066;2022-11-20T16:53:39;3.80;94.90
5134;DHT22;2585;48.696;10.066;2022-11-20T16:56:14;3.70;94.90
5134;DHT22;2585;48.696;10.066;2022-11-20T16:58:44;3.70;94.90
5134;DHT22;2585;48.696;10.066;2022-11-20T17:01:14;3.60;94.80
5134;DHT22;2585;48.696;10.066;2022-11-20T17:03:42;3.50;94.80
5134;DHT22;2585;48.696;10.066;2022-11-20T17:06:14;3.50;94.80
5134;DHT22;2585;48.696;10.066;2022-11-20T17:08:41;3.50;94.80
5134;DHT22;2585;48.696;10.066;2022-11-20T17:11:10;3.40;94.80
5134;DHT22;2585;48.696;10.066;2022-11-20T17:13:38;3.40;94.80
5134;DHT22;2585;48.696;10.066;2022-11-20T17:16:11;3.50;94.90
5134;DHT22;2585;48.696;10.066;2022-11-20T17:18:38;3.40;94.90
5134;DHT22;2585;48.696;10.066;2022-11-20T17:21:05;3.30;94.90
5134;DHT22;2585;48.696;10.066;2022-11-20T17:23:34;3.30;94.90
5134;DHT22;2585;48.696;10.066;2022-11-20T17:26:09;3.30;94.90
5134;DHT22;2585;48.696;10.066;2022-11-20T17:28:37;3.20;94.90
5134;DHT22;2585;48.696;10.066;2022-11-20T17:31:09;3.20;94.90
5134;DHT22;2585;48.696;10.066;2022-11-20T17:33:38;3.30;94.90
5134;DHT22;2585;48.696;10.066;2022-11-20T17:36:06;3.20;94.90
5134;DHT22;2585;48.696;10.066;2022-11-20T17:38:34;3.30;94.90
5134;DHT22;2585;48.696;10.066;2022-11-20T17:41:15;3.30;95.00
5134;DHT22;2585;48.696;10.066;2022-11-20T17:43:42;3.30;95.00
5134;DHT22;2585;48.696;10.066;2022-11-20T17:46:18;3.30;95.00
5134;DHT22;2585;48.696;10.066;2022-11-20T17:48:46;3.20;94.90
5134;DHT22;2585;48.696;10.066;2022-11-20T17:51:15;3.20;94.90
5134;DHT22;2585;48.696;10.066;2022-11-20T17:53:44;3.20;94.90
5134;DHT22;2585;48.696;10.066;2022-11-20T17:56:11;3.20;94.90
5134;DHT22;2585;48.696;10.066;2022-11-20T17:58:57;3.10;94.90
5134;DHT22;2585;48.696;10.066;2022-11-20T18:01:24;3.10;94.90
5134;DHT22;2585;48.696;10.066;2022-11-20T18:03:51;3.10;94.90
5134;DHT22;2585;48.696;10.066;2022-11-20T18:06:20;3.10;94.90
5134;DHT22;2585;48.696;10.066;2022-11-20T18:08:48;3.10;94.90
5134;DHT22;2585;48.696;10.066;2022-11-20T18:11:30;3.10;94.90
5134;DHT22;2585;48.696;10.066;2022-11-20T18:14:00;3.10;94.90
5134;DHT22;2585;48.696;10.066;2022-11-20T18:16:52;3.00;94.90
5134;DHT22;2585;48.696;10.066;2022-11-20T18:19:22;3.00;94.90
5134;DHT22;2585;48.696;10.066;2022-11-20T18:21:49;3.00;94.90